Time,TemperatureF,DewpointF,PressureIn,WindDirection,WindDirectionDegrees,WindSpeedMPH,WindSpeedGustMPH,Humidity,HourlyPrecipIn,Conditions,Clouds,dailyrainin,SoftwareType,DateUTC
2013-08-04 00:03:00,59.7,51.4,30.25,SSW,197,0.0,0.0,74,0.00,,BKN220,0.00,VWS V13.01,2013-08-04 06:03:00,
2013-08-04 00:08:00,59.5,51.3,30.25,SSW,197,0.0,0.0,74,0.00,,BKN220,0.00,VWS V13.01,2013-08-04 06:08:00,
2013-08-04 00:13:00,59.2,50.9,30.22,SE,134,0.0,0.0,74,0.00,,BKN220,0.00,VWS V13.01,2013-08-04 06:13:00,
2013-08-04 00:18:00,59.0,51.1,30.22,SE,133,0.0,0.0,75,0.00,,BKN220,0.00,VWS V13.01,2013-08-04 06:18:00,
2013-08-04 00:23:00,58.8,51.3,30.22,SE,132,0.0,0.0,76,0.00,,BKN220,0.00,VWS V13.01,2013-08-04 06:23:00,
2013-08-04 00:28:00,58.8,51.3,30.22,SE,133,0.0,0.0,76,0.00,,BKN220,0.00,VWS V13.01,2013-08-04 06:28:00,
2013-08-04 00:33:00,58.6,51.1,30.22,SE,133,0.0,0.0,76,0.00,,BKN220,0.00,VWS V13.01,2013-08-04 06:33:00,
2013-08-04 00:38:00,58.5,51.3,30.22,SE,133,0.0,0.0,77,0.00,,BKN220,0.00,VWS V13.01,2013-08-04 06:38:00,
2013-08-04 00:43:00,58.5,51.3,30.19,SE,132,0.0,0.0,77,0.00,,BKN220,0.00,VWS V13.01,2013-08-04 06:43:00,
2013-08-04 00:47:00,58.5,51.6,30.19,SE,133,0.0,0.0,78,0.00,,BKN220,0.00,VWS V13.01,2013-08-04 06:47:00,
2013-08-04 00:53:00,58.3,51.5,30.19,SE,132,0.0,0.0,78,0.00,,BKN220,0.00,VWS V13.01,2013-08-04 06:53:00,
2013-08-04 00:58:00,58.3,51.5,30.19,SE,133,0.0,0.0,78,0.00,,BKN220,0.00,VWS V13.01,2013-08-04 06:58:00,
2013-08-04 01:03:00,58.1,51.3,30.19,SE,132,0.0,0.0,78,0.00,,FEW220,0.00,VWS V13.01,2013-08-04 07:03:00,
2013-08-04 01:07:00,58.1,51.3,30.19,SE,133,0.0,0.0,78,0.00,,FEW220,0.00,VWS V13.01,2013-08-04 07:07:00,
2013-08-04 01:13:00,57.9,51.5,30.19,SE,133,0.0,0.0,79,0.00,,FEW220,0.00,VWS V13.01,2013-08-04 07:13:00,
2013-08-04 01:18:00,57.9,51.5,30.19,SE,133,0.0,0.0,79,0.00,,FEW220,0.00,VWS V13.01,2013-08-04 07:18:00,
2013-08-04 01:23:00,57.7,51.3,30.19,SE,133,0.0,0.0,79,0.00,,FEW220,0.00,VWS V13.01,2013-08-04 07:23:00,
2013-08-04 01:28:00,57.7,51.6,30.19,SE,133,0.0,0.0,80,0.00,,FEW220,0.00,VWS V13.01,2013-08-04 07:28:00,
2013-08-04 01:33:00,57.7,51.6,30.19,SE,133,0.0,0.0,80,0.00,,FEW220,0.00,VWS V13.01,2013-08-04 07:33:00,
2013-08-04 01:38:00,57.6,51.5,30.19,SE,133,0.0,0.0,80,0.00,,FEW220,0.00,VWS V13.01,2013-08-04 07:38:00,
2013-08-04 01:43:00,57.6,51.5,30.16,SE,133,0.0,0.0,80,0.00,,FEW220,0.00,VWS V13.01,2013-08-04 07:43:00,
2013-08-04 01:48:00,57.6,51.5,30.16,SE,132,0.0,0.0,80,0.00,,FEW220,0.00,VWS V13.01,2013-08-04 07:48:00,
2013-08-04 01:53:00,57.4,51.3,30.16,SSE,164,0.0,3.1,80,0.00,,FEW220,0.00,VWS V13.01,2013-08-04 07:53:00,
2013-08-04 01:58:00,57.6,51.8,30.16,SSE,164,0.0,3.1,81,0.00,,FEW220,0.00,VWS V13.01,2013-08-04 07:58:00,
2013-08-04 02:03:00,57.9,52.1,30.16,SSE,155,0.0,3.6,81,0.00,,FEW220,0.00,VWS V13.01,2013-08-04 08:03:00,
2013-08-04 02:08:00,58.1,52.6,30.16,South,179,0.0,4.0,82,0.00,,FEW220,0.00,VWS V13.01,2013-08-04 08:08:00,
2013-08-04 02:13:00,58.5,53.0,30.16,SSE,162,2.2,4.0,82,0.00,,FEW220,0.00,VWS V13.01,2013-08-04 08:13:00,
2013-08-04 02:18:00,58.6,53.2,30.16,SSE,162,0.0,0.0,82,0.00,,FEW220,0.00,VWS V13.01,2013-08-04 08:18:00,
2013-08-04 02:23:00,58.8,53.3,30.16,SSE,162,0.0,0.0,82,0.00,,FEW220,0.00,VWS V13.01,2013-08-04 08:23:00,
2013-08-04 02:28:00,58.8,53.3,30.16,SSE,161,0.0,0.0,82,0.00,,FEW220,0.00,VWS V13.01,2013-08-04 08:28:00,
2013-08-04 02:33:00,58.8,53.0,30.16,SSE,160,0.0,0.0,81,0.00,,FEW220,0.00,VWS V13.01,2013-08-04 08:33:00,
2013-08-04 02:38:00,59.0,53.2,30.16,ESE,110,0.0,0.0,81,0.00,,FEW220,0.00,VWS V13.01,2013-08-04 08:38:00,
2013-08-04 02:43:00,59.2,53.0,30.14,ESE,110,0.0,0.0,80,0.00,,FEW220,0.00,VWS V13.01,2013-08-04 08:43:00,
2013-08-04 02:48:00,59.2,52.7,30.14,ESE,108,0.0,0.0,79,0.00,,FEW220,0.00,VWS V13.01,2013-08-04 08:48:00,
2013-08-04 02:53:00,59.0,52.5,30.14,ESE,108,0.0,0.0,79,0.00,,FEW220,0.00,VWS V13.01,2013-08-04 08:53:00,
2013-08-04 02:58:00,58.8,52.3,30.14,ESE,108,0.0,0.0,79,0.00,,FEW220,0.00,VWS V13.01,2013-08-04 08:58:00,
2013-08-04 03:03:00,58.5,51.6,30.14,ESE,108,0.0,0.0,78,0.00,,FEW220,0.00,VWS V13.01,2013-08-04 09:03:00,
2013-08-04 03:08:00,58.3,51.5,30.14,ESE,108,0.0,0.0,78,0.00,,FEW220,0.00,VWS V13.01,2013-08-04 09:08:00,
2013-08-04 03:13:00,57.9,50.8,30.14,ESE,109,0.0,0.0,77,0.00,,FEW220,0.00,VWS V13.01,2013-08-04 09:13:00,
2013-08-04 03:18:00,57.9,50.8,30.14,ESE,108,0.0,0.0,77,0.00,,FEW220,0.00,VWS V13.01,2013-08-04 09:18:00,
2013-08-04 03:23:00,57.9,51.1,30.14,ESE,109,0.0,0.0,78,0.00,,FEW220,0.00,VWS V13.01,2013-08-04 09:23:00,
2013-08-04 03:28:00,57.9,50.8,30.14,ESE,108,0.0,0.0,77,0.00,,FEW220,0.00,VWS V13.01,2013-08-04 09:28:00,
2013-08-04 03:33:00,57.9,50.8,30.14,ESE,109,0.0,0.0,77,0.00,,FEW220,0.00,VWS V13.01,2013-08-04 09:33:00,
2013-08-04 03:38:00,57.9,50.8,30.14,ESE,108,0.0,0.0,77,0.00,,FEW220,0.00,VWS V13.01,2013-08-04 09:38:00,
2013-08-04 03:43:00,57.9,50.8,30.14,ESE,109,0.0,0.0,77,0.00,,FEW220,0.00,VWS V13.01,2013-08-04 09:43:00,
2013-08-04 03:48:00,57.7,50.6,30.14,ESE,109,0.0,0.0,77,0.00,,FEW220,0.00,VWS V13.01,2013-08-04 09:48:00,
2013-08-04 03:53:00,57.6,50.4,30.14,ESE,108,0.0,0.0,77,0.00,,FEW220,0.00,VWS V13.01,2013-08-04 09:53:00,
2013-08-04 03:58:00,57.4,50.2,30.14,ESE,108,0.0,0.0,77,0.00,,FEW220,0.00,VWS V13.01,2013-08-04 09:58:00,
2013-08-04 04:03:00,57.4,50.2,30.14,ESE,109,0.0,0.0,77,0.00,,FEW220,0.00,VWS V13.01,2013-08-04 10:03:00,
2013-08-04 04:08:00,57.2,50.1,30.14,ESE,108,0.0,0.0,77,0.00,,FEW220,0.00,VWS V13.01,2013-08-04 10:08:00,
2013-08-04 04:13:00,57.2,50.1,30.11,ESE,108,0.0,0.0,77,0.00,,FEW220,0.00,VWS V13.01,2013-08-04 10:13:00,
2013-08-04 04:18:00,57.4,50.6,30.11,ESE,109,0.0,0.0,78,0.00,,FEW220,0.00,VWS V13.01,2013-08-04 10:18:00,
2013-08-04 04:23:00,57.6,50.8,30.11,South,178,0.0,0.0,78,0.00,,FEW220,0.00,VWS V13.01,2013-08-04 10:23:00,
2013-08-04 04:28:00,58.1,51.6,30.11,SSE,163,0.0,3.6,79,0.00,,FEW220,0.00,VWS V13.01,2013-08-04 10:28:00,
2013-08-04 04:33:00,58.5,52.0,30.11,NE,47,0.0,3.1,79,0.00,,FEW220,0.00,VWS V13.01,2013-08-04 10:33:00,
2013-08-04 04:38:00,58.6,52.2,30.11,NE,47,0.0,3.1,79,0.00,,FEW220,0.00,VWS V13.01,2013-08-04 10:38:00,
2013-08-04 04:43:00,58.6,52.2,30.11,NE,47,0.0,3.1,79,0.00,,FEW220,0.00,VWS V13.01,2013-08-04 10:43:00,
2013-08-04 04:48:00,58.8,52.0,30.11,NE,47,0.0,0.0,78,0.00,,FEW220,0.00,VWS V13.01,2013-08-04 10:48:00,
2013-08-04 04:54:00,58.8,52.0,30.11,NE,47,0.0,0.0,78,0.00,,FEW220,0.00,VWS V13.01,2013-08-04 10:54:00,
2013-08-04 04:58:00,58.8,52.0,30.11,SSE,168,0.0,0.0,78,0.00,,FEW220,0.00,VWS V13.01,2013-08-04 10:58:00,
2013-08-04 05:04:00,59.0,51.8,30.11,SSE,167,0.0,0.0,77,0.00,,FEW220,0.00,VWS V13.01,2013-08-04 11:04:00,
2013-08-04 05:09:00,59.0,51.8,30.11,SSE,168,0.0,0.0,77,0.00,,FEW220,0.00,VWS V13.01,2013-08-04 11:09:00,
2013-08-04 05:13:00,59.0,51.5,30.11,SE,133,0.0,0.0,76,0.00,,FEW220,0.00,VWS V13.01,2013-08-04 11:13:00,
2013-08-04 05:18:00,58.8,51.3,30.11,SE,133,0.0,0.0,76,0.00,,FEW220,0.00,VWS V13.01,2013-08-04 11:18:00,
2013-08-04 05:24:00,58.5,50.6,30.11,SE,133,0.0,0.0,75,0.00,,FEW220,0.00,VWS V13.01,2013-08-04 11:24:00,
2013-08-04 05:29:00,58.1,50.2,30.11,SE,133,0.0,0.0,75,0.00,,FEW220,0.00,VWS V13.01,2013-08-04 11:29:00,
2013-08-04 05:34:00,58.1,50.2,30.11,SE,133,0.0,0.0,75,0.00,,FEW220,0.00,VWS V13.01,2013-08-04 11:34:00,
2013-08-04 05:39:00,58.1,50.2,30.11,SE,133,0.0,0.0,75,0.00,,FEW220,0.00,VWS V13.01,2013-08-04 11:39:00,
2013-08-04 05:44:00,57.9,50.0,30.14,SE,132,0.0,0.0,75,0.00,,FEW220,0.00,VWS V13.01,2013-08-04 11:44:00,
2013-08-04 05:49:00,57.6,49.7,30.14,SE,133,0.0,0.0,75,0.00,,FEW220,0.00,VWS V13.01,2013-08-04 11:49:00,
2013-08-04 05:54:00,57.4,49.5,30.14,SE,133,0.0,0.0,75,0.00,,FEW220,0.00,VWS V13.01,2013-08-04 11:54:00,
2013-08-04 05:59:00,57.2,49.4,30.14,SE,133,0.0,0.0,75,0.00,,FEW220,0.00,VWS V13.01,2013-08-04 11:59:00,
2013-08-04 06:04:00,57.0,49.5,30.14,SE,133,0.0,0.0,76,0.00,,FEW220,0.00,VWS V13.01,2013-08-04 12:04:00,
2013-08-04 06:09:00,56.8,49.4,30.14,SE,133,0.0,0.0,76,0.00,,FEW220,0.00,VWS V13.01,2013-08-04 12:09:00,
2013-08-04 06:14:00,56.7,49.5,30.11,SE,133,0.0,0.0,77,0.00,,FEW220,0.00,VWS V13.01,2013-08-04 12:14:00,
2013-08-04 06:19:00,56.7,49.5,30.11,SE,133,0.0,0.0,77,0.00,,FEW220,0.00,VWS V13.01,2013-08-04 12:19:00,
2013-08-04 06:24:00,56.5,49.4,30.11,SE,133,0.0,0.0,77,0.00,,FEW220,0.00,VWS V13.01,2013-08-04 12:24:00,
2013-08-04 06:29:00,56.5,49.7,30.14,SE,132,0.0,0.0,78,0.00,,FEW220,0.00,VWS V13.01,2013-08-04 12:29:00,
2013-08-04 06:34:00,56.5,49.7,30.14,SE,132,0.0,0.0,78,0.00,,FEW220,0.00,VWS V13.01,2013-08-04 12:34:00,
2013-08-04 06:39:00,56.7,50.2,30.14,SE,132,0.0,0.0,79,0.00,,FEW220,0.00,VWS V13.01,2013-08-04 12:39:00,
2013-08-04 06:44:00,57.2,50.8,30.14,SE,133,0.0,0.0,79,0.00,,FEW220,0.00,VWS V13.01,2013-08-04 12:44:00,
2013-08-04 06:49:00,57.7,51.6,30.14,SE,133,0.0,0.0,80,0.00,,FEW220,0.00,VWS V13.01,2013-08-04 12:49:00,
2013-08-04 06:54:00,58.5,52.3,30.14,SE,132,0.0,0.0,80,0.00,,FEW220,0.00,VWS V13.01,2013-08-04 12:54:00,
2013-08-04 06:59:00,59.2,53.0,30.14,SE,133,0.0,0.0,80,0.00,,FEW220,0.00,VWS V13.01,2013-08-04 12:59:00,
2013-08-04 07:04:00,59.9,53.7,30.14,SE,132,0.0,0.0,80,0.00,,FEW220,0.00,VWS V13.01,2013-08-04 13:04:00,
2013-08-04 07:09:00,61.0,54.8,30.14,SE,133,0.0,0.0,80,0.00,,FEW220,0.00,VWS V13.01,2013-08-04 13:09:00,
2013-08-04 07:14:00,61.5,55.0,30.14,SE,133,0.0,2.7,79,0.00,,FEW220,0.00,VWS V13.01,2013-08-04 13:14:00,
2013-08-04 07:19:00,61.9,55.0,30.14,SE,132,0.0,0.0,78,0.00,,FEW220,0.00,VWS V13.01,2013-08-04 13:19:00,
2013-08-04 07:24:00,62.2,55.0,30.14,East,83,2.2,3.1,77,0.00,,FEW220,0.00,VWS V13.01,2013-08-04 13:24:00,
2013-08-04 07:29:00,63.0,54.9,30.14,SE,140,0.0,3.6,75,0.00,,FEW220,0.00,VWS V13.01,2013-08-04 13:29:00,
2013-08-04 07:34:00,63.5,54.7,30.14,SE,133,0.0,2.2,73,0.00,,FEW220,0.00,VWS V13.01,2013-08-04 13:34:00,
2013-08-04 07:39:00,64.2,54.6,30.14,SE,135,0.0,2.7,71,0.00,,FEW220,0.00,VWS V13.01,2013-08-04 13:39:00,
2013-08-04 07:44:00,65.1,54.7,30.14,SE,135,0.0,2.7,69,0.00,,FEW220,0.00,VWS V13.01,2013-08-04 13:44:00,
2013-08-04 07:49:00,65.7,54.4,30.14,SE,134,0.0,0.0,67,0.00,,FEW220,0.00,VWS V13.01,2013-08-04 13:49:00,
2013-08-04 07:54:00,66.2,53.2,30.14,SE,135,0.0,0.0,63,0.00,,FEW220,0.00,VWS V13.01,2013-08-04 13:54:00,
2013-08-04 07:59:00,66.6,52.3,30.14,SE,134,0.0,0.0,60,0.00,,FEW220,0.00,VWS V13.01,2013-08-04 13:59:00,
2013-08-04 08:04:00,67.3,51.5,30.14,SE,134,0.0,0.0,57,0.00,,SCT220,0.00,VWS V13.01,2013-08-04 14:04:00,
2013-08-04 08:09:00,67.6,49.4,30.14,SE,134,2.7,2.7,52,0.00,,SCT220,0.00,VWS V13.01,2013-08-04 14:09:00,
2013-08-04 08:14:00,67.6,48.9,30.14,SE,134,0.0,3.1,51,0.00,,SCT220,0.00,VWS V13.01,2013-08-04 14:14:00,
2013-08-04 08:19:00,67.8,48.5,30.14,SE,135,0.0,0.0,50,0.00,,SCT220,0.00,VWS V13.01,2013-08-04 14:19:00,
2013-08-04 08:24:00,68.0,47.6,30.14,SE,135,0.0,0.0,48,0.00,,SCT220,0.00,VWS V13.01,2013-08-04 14:24:00,
2013-08-04 08:29:00,68.2,46.6,30.14,SE,135,0.0,0.0,46,0.00,,SCT220,0.00,VWS V13.01,2013-08-04 14:29:00,
2013-08-04 08:34:00,68.7,47.7,30.14,SE,135,0.0,0.0,47,0.00,,SCT220,0.00,VWS V13.01,2013-08-04 14:34:00,
2013-08-04 08:39:00,69.3,47.0,30.14,SE,135,0.0,0.0,45,0.00,,SCT220,0.00,VWS V13.01,2013-08-04 14:39:00,
2013-08-04 08:44:00,69.4,46.0,30.14,SE,135,0.0,0.0,43,0.00,,SCT220,0.00,VWS V13.01,2013-08-04 14:44:00,
2013-08-04 08:49:00,69.8,45.7,30.14,SE,135,0.0,0.0,42,0.00,,SCT220,0.00,VWS V13.01,2013-08-04 14:49:00,
2013-08-04 08:54:00,70.3,46.2,30.14,SE,135,0.0,0.0,42,0.00,,SCT220,0.00,VWS V13.01,2013-08-04 14:54:00,
2013-08-04 08:59:00,70.5,46.3,30.14,West,280,3.1,3.6,42,0.00,,SCT220,0.00,VWS V13.01,2013-08-04 14:59:00,
2013-08-04 09:04:00,70.3,44.9,30.14,WNW,290,0.0,4.0,40,0.00,,BKN220,0.00,VWS V13.01,2013-08-04 15:04:00,
2013-08-04 09:09:00,70.5,46.3,30.14,ENE,65,3.6,4.0,42,0.00,,BKN220,0.00,VWS V13.01,2013-08-04 15:09:00,
2013-08-04 09:14:00,71.2,47.0,30.14,East,82,0.0,4.0,42,0.00,,BKN220,0.00,VWS V13.01,2013-08-04 15:14:00,
2013-08-04 09:19:00,71.6,46.0,30.14,East,83,0.0,2.7,40,0.00,,BKN220,0.00,VWS V13.01,2013-08-04 15:19:00,
2013-08-04 09:25:00,71.8,45.5,30.14,East,83,0.0,2.7,39,0.00,,BKN220,0.00,VWS V13.01,2013-08-04 15:25:00,
2013-08-04 09:29:00,71.8,44.8,30.14,East,83,0.0,2.7,38,0.00,,BKN220,0.00,VWS V13.01,2013-08-04 15:29:00,
2013-08-04 09:30:00,71.8,44.8,30.14,East,83,0.0,2.7,38,0.00,,BKN220,0.00,VWS V13.01,2013-08-04 15:30:00,
2013-08-04 09:35:00,71.8,43.4,30.14,East,83,0.0,0.0,36,0.00,,BKN220,0.00,VWS V13.01,2013-08-04 15:35:00,
2013-08-04 09:39:00,71.6,43.3,30.14,East,83,0.0,0.0,36,0.00,,BKN220,0.00,VWS V13.01,2013-08-04 15:39:00,
2013-08-04 09:44:00,71.6,43.3,30.14,WNW,293,0.0,0.0,36,0.00,,BKN220,0.00,VWS V13.01,2013-08-04 15:44:00,
2013-08-04 09:50:00,72.0,43.6,30.14,NNW,334,0.0,3.6,36,0.00,,BKN220,0.00,VWS V13.01,2013-08-04 15:50:00,
2013-08-04 09:55:00,72.3,43.9,30.11,WSW,251,2.7,3.6,36,0.00,,BKN220,0.00,VWS V13.01,2013-08-04 15:55:00,
2013-08-04 10:00:00,72.5,44.1,30.11,WSW,250,0.0,0.0,36,0.00,,BKN220,0.00,VWS V13.01,2013-08-04 16:00:00,
2013-08-04 10:05:00,72.7,43.5,30.11,WNW,286,3.6,4.0,35,0.00,,SCT220,0.00,VWS V13.01,2013-08-04 16:05:00,
2013-08-04 10:10:00,72.7,44.2,30.11,SW,232,0.0,4.0,36,0.00,,SCT220,0.00,VWS V13.01,2013-08-04 16:10:00,
2013-08-04 10:15:00,73.0,43.8,30.11,WNW,298,3.1,3.1,35,0.00,,SCT220,0.00,VWS V13.01,2013-08-04 16:15:00,
2013-08-04 10:20:00,73.8,44.4,30.11,WNW,298,0.0,3.1,35,0.00,,SCT220,0.00,VWS V13.01,2013-08-04 16:20:00,
2013-08-04 10:24:00,74.7,45.2,30.11,ENE,58,0.0,3.1,35,0.00,,SCT220,0.00,VWS V13.01,2013-08-04 16:24:00,
2013-08-04 10:30:00,75.2,44.2,30.11,WNW,298,3.6,3.6,33,0.00,,SCT220,0.00,VWS V13.01,2013-08-04 16:30:00,
2013-08-04 10:35:00,75.2,44.2,30.11,NW,310,0.0,4.0,33,0.00,,SCT220,0.00,VWS V13.01,2013-08-04 16:35:00,
2013-08-04 10:40:00,76.1,45.7,30.11,East,97,2.7,4.0,34,0.00,,SCT220,0.00,VWS V13.01,2013-08-04 16:40:00,
2013-08-04 10:45:00,77.2,45.9,30.11,NW,314,0.0,0.0,33,0.00,,SCT220,0.00,VWS V13.01,2013-08-04 16:45:00,
2013-08-04 10:50:00,77.5,45.4,30.11,SSW,205,0.0,2.7,32,0.00,,SCT220,0.00,VWS V13.01,2013-08-04 16:50:00,
2013-08-04 10:55:00,78.3,45.2,30.11,ENE,73,2.2,3.1,31,0.00,,SCT220,0.00,VWS V13.01,2013-08-04 16:55:00,
2013-08-04 11:00:00,78.4,45.3,30.11,NW,319,0.0,0.0,31,0.00,,SCT220,0.00,VWS V13.01,2013-08-04 17:00:00,
2013-08-04 11:05:00,78.6,45.5,30.11,ENE,72,2.2,3.6,31,0.00,,SCT220,0.00,VWS V13.01,2013-08-04 17:05:00,
2013-08-04 11:10:00,79.5,45.4,30.14,NE,52,0.0,3.6,30,0.00,,SCT220,0.00,VWS V13.01,2013-08-04 17:10:00,
2013-08-04 11:15:00,80.2,46.0,30.14,East,89,3.1,3.1,30,0.00,,SCT220,0.00,VWS V13.01,2013-08-04 17:15:00,
2013-08-04 11:20:00,80.8,43.7,30.14,ENE,77,2.2,4.0,27,0.00,,SCT220,0.00,VWS V13.01,2013-08-04 17:20:00,
2013-08-04 11:25:00,81.0,44.8,30.14,NE,46,4.0,4.0,28,0.00,,SCT220,0.00,VWS V13.01,2013-08-04 17:25:00,
2013-08-04 11:30:00,81.1,45.9,30.14,East,83,0.0,0.0,29,0.00,,SCT220,0.00,VWS V13.01,2013-08-04 17:30:00,
2013-08-04 11:35:00,81.5,42.3,30.14,ENE,68,2.7,4.9,25,0.00,,SCT220,0.00,VWS V13.01,2013-08-04 17:35:00,
2013-08-04 11:40:00,81.7,44.5,30.14,SSE,163,0.0,4.9,27,0.00,,SCT220,0.00,VWS V13.01,2013-08-04 17:40:00,
2013-08-04 11:45:00,81.9,43.7,30.14,South,174,0.0,0.0,26,0.00,,SCT220,0.00,VWS V13.01,2013-08-04 17:45:00,
2013-08-04 11:50:00,81.9,43.7,30.14,North,353,0.0,3.1,26,0.00,,SCT220,0.00,VWS V13.01,2013-08-04 17:50:00,
2013-08-04 11:55:00,82.4,44.1,30.14,East,94,2.7,4.0,26,0.00,,SCT220,0.00,VWS V13.01,2013-08-04 17:55:00,
2013-08-04 12:00:00,83.1,42.6,30.14,North,357,0.0,0.0,24,0.00,,SCT220,0.00,VWS V13.01,2013-08-04 18:00:00,
2013-08-04 12:05:00,83.7,44.2,30.14,East,89,4.9,4.9,25,0.00,,SCT220,0.00,VWS V13.01,2013-08-04 18:05:00,
2013-08-04 12:10:00,84.0,43.4,30.11,NNE,13,0.0,5.4,24,0.00,,SCT220,0.00,VWS V13.01,2013-08-04 18:10:00,
2013-08-04 12:15:00,84.2,43.5,30.11,ENE,64,4.0,4.0,24,0.00,,SCT220,0.00,VWS V13.01,2013-08-04 18:15:00,
2013-08-04 12:20:00,84.4,40.2,30.11,ENE,72,3.6,5.8,21,0.00,,SCT220,0.00,VWS V13.01,2013-08-04 18:20:00,
2013-08-04 12:25:00,84.2,41.3,30.11,ENE,60,3.6,5.8,22,0.00,,SCT220,0.00,VWS V13.01,2013-08-04 18:25:00,
2013-08-04 12:30:00,84.6,41.6,30.11,ENE,67,5.4,5.4,22,0.00,,SCT220,0.00,VWS V13.01,2013-08-04 18:30:00,
2013-08-04 12:35:00,84.2,40.1,30.11,ENE,74,4.9,6.3,21,0.00,,SCT220,0.00,VWS V13.01,2013-08-04 18:35:00,
2013-08-04 12:40:00,84.6,41.6,30.11,ENE,61,3.1,6.3,22,0.00,,SCT220,0.00,VWS V13.01,2013-08-04 18:40:00,
2013-08-04 12:46:00,85.3,41.0,30.11,East,87,3.1,3.1,21,0.00,,SCT220,0.00,VWS V13.01,2013-08-04 18:46:00,
2013-08-04 12:50:00,86.2,42.9,30.11,East,83,0.0,4.0,22,0.00,,SCT220,0.00,VWS V13.01,2013-08-04 18:50:00,
2013-08-04 12:55:00,87.1,42.5,30.14,SE,138,0.0,4.0,21,0.00,,SCT220,0.00,VWS V13.01,2013-08-04 18:55:00,
2013-08-04 13:01:00,87.3,41.3,30.14,East,79,3.1,3.6,20,0.00,,SCT220,0.00,VWS V13.01,2013-08-04 19:01:00,
2013-08-04 13:06:00,87.3,40.0,30.14,ESE,114,2.7,4.9,19,0.00,,SCT220,0.00,VWS V13.01,2013-08-04 19:06:00,
2013-08-04 13:11:00,87.1,39.9,30.11,ENE,76,4.0,6.3,19,0.00,,SCT220,0.00,VWS V13.01,2013-08-04 19:11:00,
2013-08-04 13:16:00,86.4,39.3,30.11,NE,48,0.0,3.1,19,0.00,,SCT220,0.00,VWS V13.01,2013-08-04 19:16:00,
2013-08-04 13:21:00,87.3,40.0,30.11,SE,132,2.7,3.6,19,0.00,,SCT220,0.00,VWS V13.01,2013-08-04 19:21:00,
2013-08-04 13:26:00,88.2,39.4,30.14,East,91,3.1,8.3,18,0.00,,SCT220,0.00,VWS V13.01,2013-08-04 19:26:00,
2013-08-04 13:31:00,88.2,39.4,30.14,East,89,2.2,3.1,18,0.00,,SCT220,0.00,VWS V13.01,2013-08-04 19:31:00,
2013-08-04 13:35:00,88.2,34.7,30.14,ENE,68,3.1,4.0,15,0.00,,SCT220,0.00,VWS V13.01,2013-08-04 19:35:00,
2013-08-04 13:41:00,88.5,25.1,30.11,East,85,3.6,5.4,10,0.00,,SCT220,0.00,VWS V13.01,2013-08-04 19:41:00,
2013-08-04 13:46:00,89.1,25.5,30.11,NW,314,3.6,3.6,10,0.00,,SCT220,0.00,VWS V13.01,2013-08-04 19:46:00,
2013-08-04 13:51:00,89.1,31.9,30.11,SW,216,0.0,4.0,13,0.00,,SCT220,0.00,VWS V13.01,2013-08-04 19:51:00,
2013-08-04 13:56:00,89.6,30.3,30.11,East,87,4.9,4.9,12,0.00,,SCT220,0.00,VWS V13.01,2013-08-04 19:56:00,
2013-08-04 14:01:00,89.8,26.0,30.11,East,80,4.0,4.0,10,0.00,,BKN220,0.00,VWS V13.01,2013-08-04 20:01:00,
2013-08-04 14:06:00,89.4,25.8,30.11,ENE,60,5.8,5.8,10,0.00,,BKN220,0.00,VWS V13.01,2013-08-04 20:06:00,
2013-08-04 14:11:00,88.7,19.9,30.11,East,92,5.4,6.3,8,0.00,,BKN220,0.00,VWS V13.01,2013-08-04 20:11:00,
2013-08-04 14:16:00,88.3,24.9,30.11,East,98,3.1,3.1,10,0.00,,BKN220,0.00,VWS V13.01,2013-08-04 20:16:00,
2013-08-04 14:21:00,88.5,19.8,30.11,NE,44,6.3,6.3,8,0.00,,BKN220,0.00,VWS V13.01,2013-08-04 20:21:00,
2013-08-04 14:25:00,88.7,19.9,30.11,ENE,73,0.0,6.3,8,0.00,,BKN220,0.00,VWS V13.01,2013-08-04 20:25:00,
2013-08-04 14:31:00,89.2,20.3,30.11,East,81,4.9,6.3,8,0.00,,BKN220,0.00,VWS V13.01,2013-08-04 20:31:00,
2013-08-04 14:36:00,89.1,20.2,30.11,ESE,108,5.4,6.7,8,0.00,,BKN220,0.00,VWS V13.01,2013-08-04 20:36:00,
2013-08-04 14:41:00,88.3,19.6,30.11,East,90,5.4,6.7,8,0.00,,BKN220,0.00,VWS V13.01,2013-08-04 20:41:00,
2013-08-04 14:46:00,88.7,19.9,30.11,ESE,106,0.0,3.6,8,0.00,,BKN220,0.00,VWS V13.01,2013-08-04 20:46:00,
2013-08-04 14:51:00,89.6,17.5,30.11,East,79,4.9,4.9,7,0.00,,BKN220,0.00,VWS V13.01,2013-08-04 20:51:00,
2013-08-04 14:56:00,88.9,20.0,30.11,East,96,3.1,8.3,8,0.00,,BKN220,0.00,VWS V13.01,2013-08-04 20:56:00,
2013-08-04 15:01:00,88.7,19.9,30.11,East,89,2.2,4.0,8,0.00,,SCT200,0.00,VWS V13.01,2013-08-04 21:01:00,
2013-08-04 15:06:00,89.6,17.5,30.11,ENE,61,2.7,5.8,7,0.00,,SCT200,0.00,VWS V13.01,2013-08-04 21:06:00,
2013-08-04 15:11:00,90.3,18.0,30.11,WNW,301,4.0,5.8,7,0.00,,SCT200,0.00,VWS V13.01,2013-08-04 21:11:00,
2013-08-04 15:16:00,90.5,18.1,30.11,NW,313,3.1,3.6,7,0.00,,SCT200,0.00,VWS V13.01,2013-08-04 21:16:00,
2013-08-04 15:21:00,89.1,20.2,30.11,WNW,286,3.1,5.8,8,0.00,,SCT200,0.00,VWS V13.01,2013-08-04 21:21:00,
2013-08-04 15:26:00,88.3,19.6,30.08,NE,51,0.0,5.8,8,0.00,,SCT200,0.00,VWS V13.01,2013-08-04 21:26:00,
2013-08-04 15:31:00,88.2,19.5,30.08,ENE,74,0.0,3.1,8,0.00,,SCT200,0.00,VWS V13.01,2013-08-04 21:31:00,
2013-08-04 15:36:00,88.2,19.5,30.08,East,82,0.0,3.1,8,0.00,,SCT200,0.00,VWS V13.01,2013-08-04 21:36:00,
2013-08-04 15:41:00,88.3,19.6,30.08,WNW,292,2.2,5.4,8,0.00,,SCT200,0.00,VWS V13.01,2013-08-04 21:41:00,
2013-08-04 15:47:00,88.5,19.8,30.08,WNW,293,0.0,0.0,8,0.00,,SCT200,0.00,VWS V13.01,2013-08-04 21:47:00,
2013-08-04 15:49:00,88.7,19.9,30.08,WNW,293,0.0,0.0,8,0.00,,SCT200,0.00,VWS V13.01,2013-08-04 21:49:00,
2013-08-04 15:54:00,89.1,20.2,30.08,WNW,293,0.0,0.0,8,0.00,,SCT200,0.00,VWS V13.01,2013-08-04 21:54:00,
2013-08-04 15:59:00,88.9,20.0,30.08,WNW,293,0.0,0.0,8,0.00,,SCT200,0.00,VWS V13.01,2013-08-04 21:59:00,
2013-08-04 16:04:00,88.5,19.8,30.08,WNW,294,0.0,2.7,8,0.00,,BKN200,0.00,VWS V13.01,2013-08-04 22:04:00,
2013-08-04 16:09:00,88.0,19.4,30.08,WNW,293,0.0,2.7,8,0.00,,BKN200,0.00,VWS V13.01,2013-08-04 22:09:00,
2013-08-04 16:14:00,87.6,19.1,30.08,WNW,297,0.0,2.7,8,0.00,,BKN200,0.00,VWS V13.01,2013-08-04 22:14:00,
2013-08-04 16:19:00,87.4,19.0,30.08,WNW,297,0.0,0.0,8,0.00,,BKN200,0.00,VWS V13.01,2013-08-04 22:19:00,
2013-08-04 16:24:00,87.3,18.9,30.08,NW,326,0.0,0.0,8,0.00,,BKN200,0.00,VWS V13.01,2013-08-04 22:24:00,
2013-08-04 16:30:00,87.3,26.4,30.08,WNW,297,0.0,3.6,11,0.00,,BKN200,0.00,VWS V13.01,2013-08-04 22:30:00,
2013-08-04 16:35:00,86.9,26.1,30.08,WNW,298,3.1,5.4,11,0.00,,BKN200,0.00,VWS V13.01,2013-08-04 22:35:00,
2013-08-04 16:39:00,86.7,30.0,30.08,WSW,255,5.8,5.8,13,0.00,,BKN200,0.00,VWS V13.01,2013-08-04 22:39:00,
2013-08-04 16:44:00,86.5,29.9,30.08,North,353,2.2,6.3,13,0.00,,BKN200,0.00,VWS V13.01,2013-08-04 22:44:00,
2013-08-04 16:50:00,86.2,29.6,30.08,West,267,0.0,8.3,13,0.00,,BKN200,0.00,VWS V13.01,2013-08-04 22:50:00,
2013-08-04 16:55:00,85.6,29.2,30.08,NW,309,0.0,8.3,13,0.00,,BKN200,0.00,VWS V13.01,2013-08-04 22:55:00,
2013-08-04 17:00:00,85.5,34.2,30.08,WNW,296,0.0,8.3,16,0.00,,BKN200,0.00,VWS V13.01,2013-08-04 23:00:00,
2013-08-04 17:05:00,85.3,37.0,30.08,NW,307,0.0,2.2,18,0.00,,BKN130,0.00,VWS V13.01,2013-08-04 23:05:00,
2013-08-04 17:10:00,85.1,33.9,30.11,WNW,291,0.0,2.2,16,0.00,,BKN130,0.00,VWS V13.01,2013-08-04 23:10:00,
2013-08-04 17:15:00,84.9,33.8,30.11,WNW,290,0.0,2.7,16,0.00,,BKN130,0.00,VWS V13.01,2013-08-04 23:15:00,
2013-08-04 17:20:00,84.9,33.8,30.11,WNW,290,0.0,0.0,16,0.00,,BKN130,0.00,VWS V13.01,2013-08-04 23:20:00,
2013-08-04 17:25:00,84.4,36.3,30.11,WNW,291,0.0,0.0,18,0.00,,BKN130,0.00,VWS V13.01,2013-08-04 23:25:00,
2013-08-04 17:30:00,84.2,33.2,30.11,West,261,2.2,2.2,16,0.00,,BKN130,0.00,VWS V13.01,2013-08-04 23:30:00,
2013-08-04 17:35:00,83.8,32.9,30.11,West,261,0.0,2.2,16,0.00,,BKN130,0.00,VWS V13.01,2013-08-04 23:35:00,
2013-08-04 17:39:00,83.5,36.9,30.11,WSW,257,0.0,3.6,19,0.00,,BKN130,0.00,VWS V13.01,2013-08-04 23:39:00,
2013-08-04 17:45:00,83.1,29.0,30.11,West,272,4.9,5.4,14,0.00,,BKN130,0.00,VWS V13.01,2013-08-04 23:45:00,
2013-08-04 17:50:00,82.6,28.6,30.11,NNW,328,8.3,13.2,14,0.00,,BKN130,0.00,VWS V13.01,2013-08-04 23:50:00,
2013-08-04 17:55:00,78.1,38.4,30.14,NNW,344,4.0,17.4,24,0.00,,BKN130,0.00,VWS V13.01,2013-08-04 23:55:00,
2013-08-04 18:00:00,71.8,43.4,30.14,NE,49,6.3,6.3,36,0.00,,BKN130,0.00,VWS V13.01,2013-08-05 00:00:00,
2013-08-04 18:05:00,69.1,46.3,30.14,East,83,5.4,8.1,44,0.00,,BKN120,0.00,VWS V13.01,2013-08-05 00:05:00,
2013-08-04 18:10:00,68.2,47.8,30.11,West,273,3.6,8.1,48,0.00,,BKN120,0.00,VWS V13.01,2013-08-05 00:10:00,
2013-08-04 18:15:00,68.2,47.8,30.11,West,280,0.0,0.0,48,0.00,,,0.00,VWS V13.01,2013-08-05 00:15:00,
2013-08-04 18:20:00,68.2,50.9,30.11,East,92,3.6,4.5,54,0.00,,,0.00,VWS V13.01,2013-08-05 00:20:00,
2013-08-04 18:25:00,67.5,51.7,30.14,East,93,0.0,4.5,57,0.00,,,0.00,VWS V13.01,2013-08-05 00:25:00,
2013-08-04 18:30:00,67.3,52.0,30.14,SSW,207,0.0,2.2,58,0.00,,,0.00,VWS V13.01,2013-08-05 00:30:00,
2013-08-04 18:35:00,67.8,52.5,30.14,ESE,118,0.0,3.6,58,0.00,,BKN120,0.00,VWS V13.01,2013-08-05 00:35:00,
2013-08-04 18:40:00,68.0,52.2,30.14,SE,129,0.0,3.6,57,0.00,,BKN120,0.00,VWS V13.01,2013-08-05 00:40:00,
2013-08-04 18:45:00,68.2,51.9,30.14,SSE,151,0.0,0.0,56,0.00,,BKN120,0.00,VWS V13.01,2013-08-05 00:45:00,
2013-08-04 18:50:00,68.4,52.5,30.14,SSE,155,0.0,0.0,57,0.00,,BKN120,0.00,VWS V13.01,2013-08-05 00:50:00,
2013-08-04 18:55:00,68.4,51.6,30.14,East,96,0.0,4.0,55,0.00,,BKN120,0.00,VWS V13.01,2013-08-05 00:55:00,
2013-08-04 19:00:00,68.9,50.6,30.14,ENE,63,0.0,0.0,52,0.00,,BKN120,0.00,VWS V13.01,2013-08-05 01:00:00,
2013-08-04 19:05:00,69.6,48.0,30.14,ENE,66,0.0,5.4,46,0.00,,BKN120,0.00,VWS V13.01,2013-08-05 01:05:00,
2013-08-04 19:10:00,69.8,48.1,30.14,ENE,66,0.0,5.4,46,0.00,,BKN120,0.00,VWS V13.01,2013-08-05 01:10:00,
2013-08-04 19:15:00,69.8,48.1,30.14,ENE,66,0.0,0.0,46,0.00,,BKN120,0.00,VWS V13.01,2013-08-05 01:15:00,
2013-08-04 19:20:00,70.0,47.7,30.14,ESE,112,0.0,4.5,45,0.00,,BKN120,0.00,VWS V13.01,2013-08-05 01:20:00,
2013-08-04 19:25:00,70.3,46.8,30.14,ENE,77,0.0,4.5,43,0.00,,BKN120,0.00,VWS V13.01,2013-08-05 01:25:00,
2013-08-04 19:30:00,70.3,47.4,30.14,ENE,77,0.0,0.0,44,0.00,,BKN120,0.00,VWS V13.01,2013-08-05 01:30:00,
2013-08-04 19:35:00,70.2,47.8,30.14,ENE,77,0.0,0.0,45,0.00,,BKN120,0.00,VWS V13.01,2013-08-05 01:35:00,
2013-08-04 19:41:00,70.2,47.2,30.16,East,90,0.0,2.7,44,0.00,,BKN120,0.00,VWS V13.01,2013-08-05 01:41:00,
2013-08-04 19:46:00,70.3,47.4,30.16,ESE,111,0.0,0.0,44,0.00,,BKN120,0.00,VWS V13.01,2013-08-05 01:46:00,
2013-08-04 19:51:00,70.3,47.4,30.16,ESE,112,0.0,0.0,44,0.00,,BKN120,0.00,VWS V13.01,2013-08-05 01:51:00,
2013-08-04 19:56:00,70.3,48.0,30.16,ESE,111,0.0,0.0,45,0.00,,BKN120,0.00,VWS V13.01,2013-08-05 01:56:00,
2013-08-04 20:01:00,70.0,48.8,30.16,SSE,163,0.0,0.0,47,0.00,,BKN120,0.00,VWS V13.01,2013-08-05 02:01:00,
2013-08-04 20:06:00,70.0,47.7,30.16,West,267,0.0,3.1,45,0.00,,BKN120,0.00,VWS V13.01,2013-08-05 02:06:00,
2013-08-04 20:10:00,70.5,47.6,30.16,SW,224,0.0,3.1,44,0.00,,BKN120,0.00,VWS V13.01,2013-08-05 02:10:00,
2013-08-04 20:16:00,70.9,47.3,30.16,SW,224,0.0,0.0,43,0.00,,BKN120,0.00,VWS V13.01,2013-08-05 02:16:00,
2013-08-04 20:21:00,71.2,46.4,30.16,SSW,202,0.0,0.0,41,0.00,,BKN120,0.00,VWS V13.01,2013-08-05 02:21:00,
2013-08-04 20:25:00,71.4,45.9,30.16,SE,131,0.0,3.1,40,0.00,,BKN120,0.00,VWS V13.01,2013-08-05 02:25:00,
2013-08-04 20:31:00,71.6,45.4,30.16,SSE,166,0.0,0.0,39,0.00,,BKN120,0.00,VWS V13.01,2013-08-05 02:31:00,
2013-08-04 20:36:00,71.8,44.8,30.16,West,261,3.1,3.1,38,0.00,,BKN120,0.00,VWS V13.01,2013-08-05 02:36:00,
2013-08-04 20:40:00,72.0,43.6,30.16,WSW,252,2.7,4.0,36,0.00,,BKN120,0.00,VWS V13.01,2013-08-05 02:40:00,
2013-08-04 20:46:00,72.7,42.7,30.16,WSW,245,2.7,3.6,34,0.00,,BKN120,0.00,VWS V13.01,2013-08-05 02:46:00,
2013-08-04 20:51:00,73.0,43.0,30.16,West,269,8.1,8.1,34,0.00,,BKN120,0.00,VWS V13.01,2013-08-05 02:51:00,
2013-08-04 20:56:00,73.4,42.6,30.19,West,264,4.9,8.3,33,0.00,,BKN120,0.00,VWS V13.01,2013-08-05 02:56:00,
2013-08-04 21:01:00,73.4,41.8,30.19,West,280,5.8,5.8,32,0.00,,BKN100,0.00,VWS V13.01,2013-08-05 03:01:00,
2013-08-04 21:06:00,73.2,41.6,30.19,WSW,253,2.7,5.8,32,0.00,,BKN100,0.00,VWS V13.01,2013-08-05 03:06:00,
2013-08-04 21:11:00,73.0,42.3,30.19,SW,226,0.0,5.8,33,0.00,,BKN100,0.00,VWS V13.01,2013-08-05 03:11:00,
2013-08-04 21:16:00,72.9,42.1,30.19,SW,220,0.0,0.0,33,0.00,,BKN100,0.00,VWS V13.01,2013-08-05 03:16:00,
2013-08-04 21:22:00,72.3,42.4,30.19,ESE,114,4.0,4.0,34,0.00,,BKN100,0.00,VWS V13.01,2013-08-05 03:22:00,
2013-08-04 21:27:00,72.0,42.1,30.19,SSE,152,2.2,4.0,34,0.00,,BKN100,0.00,VWS V13.01,2013-08-05 03:27:00,
2013-08-04 21:32:00,71.6,42.5,30.19,SE,141,0.0,0.0,35,0.00,,BKN100,0.00,VWS V13.01,2013-08-05 03:32:00,
2013-08-04 21:37:00,71.6,42.5,30.19,WSW,248,0.0,3.6,35,0.00,,BKN100,0.00,VWS V13.01,2013-08-05 03:37:00,
2013-08-04 21:42:00,71.4,43.1,30.19,SSE,161,0.0,4.0,36,0.00,,BKN100,0.00,VWS V13.01,2013-08-05 03:42:00,
2013-08-04 21:47:00,71.1,43.5,30.19,SSW,206,0.0,3.6,37,0.00,,BKN100,0.00,VWS V13.01,2013-08-05 03:47:00,
2013-08-04 21:52:00,71.1,42.8,30.19,West,265,2.2,7.6,36,0.00,,BKN100,0.00,VWS V13.01,2013-08-05 03:52:00,
2013-08-04 21:57:00,71.1,42.8,30.19,North,8,4.0,7.6,36,0.00,,BKN100,0.00,VWS V13.01,2013-08-05 03:57:00,
2013-08-04 22:01:00,71.1,42.8,30.19,SW,223,2.7,5.4,36,0.00,,-RA,0.00,VWS V13.01,2013-08-05 04:01:00,
2013-08-04 22:07:00,70.5,44.4,30.19,South,183,0.0,5.8,39,0.00,,-RA,0.00,VWS V13.01,2013-08-05 04:07:00,
2013-08-04 22:12:00,70.0,45.2,30.19,SE,136,2.7,5.8,41,0.00,,-RA,0.00,VWS V13.01,2013-08-05 04:12:00,
2013-08-04 22:17:00,69.6,46.2,30.19,SE,145,2.7,5.8,43,0.00,,-RA,0.00,VWS V13.01,2013-08-05 04:17:00,
2013-08-04 22:22:00,69.4,46.0,30.19,WNW,288,2.7,5.8,43,0.00,,-RA,0.00,VWS V13.01,2013-08-05 04:22:00,
2013-08-04 22:27:00,69.4,46.0,30.19,South,188,2.7,5.8,43,0.00,,-RA,0.00,VWS V13.01,2013-08-05 04:27:00,
2013-08-04 22:32:00,69.3,45.8,30.19,SSE,164,0.0,2.7,43,0.00,,-RA,0.00,VWS V13.01,2013-08-05 04:32:00,
2013-08-04 22:37:00,69.3,45.8,30.19,SE,124,2.7,4.0,43,0.00,,-RA,0.00,VWS V13.01,2013-08-05 04:37:00,
2013-08-04 22:42:00,69.3,45.8,30.16,East,96,4.9,5.8,43,0.00,,-RA,0.00,VWS V13.01,2013-08-05 04:42:00,
2013-08-04 22:47:00,69.3,45.8,30.16,SSE,148,3.6,5.4,43,0.00,,-RA,0.00,VWS V13.01,2013-08-05 04:47:00,
2013-08-04 22:52:00,69.4,44.7,30.16,SW,220,2.7,7.6,41,0.00,,-RA,0.00,VWS V13.01,2013-08-05 04:52:00,
2013-08-04 22:57:00,70.0,44.6,30.16,SE,142,8.3,8.3,40,0.00,,-RA,0.00,VWS V13.01,2013-08-05 04:57:00,
2013-08-04 23:02:00,70.2,44.7,30.16,SE,139,0.0,3.6,40,0.00,,BKN120,0.00,VWS V13.01,2013-08-05 05:02:00,
2013-08-04 23:07:00,70.3,44.2,30.16,SSE,168,5.8,8.1,39,0.00,,BKN120,0.00,VWS V13.01,2013-08-05 05:07:00,
2013-08-04 23:12:00,70.5,43.7,30.16,South,174,2.2,8.1,38,0.00,,BKN120,0.00,VWS V13.01,2013-08-05 05:12:00,
2013-08-04 23:17:00,70.7,43.2,30.16,ESE,119,4.0,5.8,37,0.00,,BKN120,0.00,VWS V13.01,2013-08-05 05:17:00,
2013-08-04 23:22:00,70.7,43.2,30.16,SE,145,4.0,6.3,37,0.00,,BKN120,0.00,VWS V13.01,2013-08-05 05:22:00,
2013-08-04 23:27:00,70.9,42.6,30.14,South,169,2.7,6.3,36,0.00,,BKN120,0.00,VWS V13.01,2013-08-05 05:27:00,
2013-08-04 23:32:00,70.7,42.5,30.14,ESE,122,6.3,6.3,36,0.00,,BKN120,0.00,VWS V13.01,2013-08-05 05:32:00,
2013-08-04 23:37:00,70.9,42.6,30.14,SE,134,3.1,7.6,36,0.00,,BKN120,0.00,VWS V13.01,2013-08-05 05:37:00,
2013-08-04 23:42:00,70.9,41.9,30.14,SSE,149,5.4,7.6,35,0.00,,BKN120,0.00,VWS V13.01,2013-08-05 05:42:00,
2013-08-04 23:47:00,70.9,41.1,30.14,SSE,163,5.8,5.8,34,0.00,,BKN120,0.00,VWS V13.01,2013-08-05 05:47:00,
2013-08-04 23:52:00,71.1,41.3,30.14,SSE,153,2.7,8.7,34,0.00,,BKN120,0.00,VWS V13.01,2013-08-05 05:52:00,
2013-08-04 23:57:00,71.1,41.3,30.14,East,82,2.7,8.7,34,0.00,,BKN120,0.00,VWS V13.01,2013-08-05 05:57:00,